createdAt,value
2023-02-15T00:02:03.051Z,21.00
2023-02-15T00:04:46.427Z,21.40
2023-02-15T00:07:16.197Z,18.60
2023-02-15T00:09:43.355Z,21.50
2023-02-15T00:12:10.766Z,23.00
2023-02-15T00:14:37.757Z,20.50
2023-02-15T00:17:04.727Z,18.80
2023-02-15T00:19:31.437Z,20.40
2023-02-15T00:21:58.307Z,20.90
2023-02-15T00:24:25.329Z,19.90
2023-02-15T00:26:52.103Z,19.50
2023-02-15T00:29:19.933Z,18.70
2023-02-15T00:31:47.189Z,21.00
2023-02-15T00:34:17.727Z,23.40
2023-02-15T00:36:44.739Z,22.80
2023-02-15T00:39:14.279Z,23.30
2023-02-15T00:41:41.311Z,18.30
2023-02-15T00:44:08.947Z,17.50
2023-02-15T00:46:35.910Z,21.30
2023-02-15T00:49:03.664Z,22.20
2023-02-15T00:51:31.887Z,18.50
2023-02-15T00:53:58.912Z,20.70
2023-02-15T00:56:25.786Z,21.20
2023-02-15T00:58:52.715Z,19.00
2023-02-15T01:01:21.449Z,20.30
2023-02-15T01:03:48.265Z,21.40
2023-02-15T01:06:16.548Z,19.90
2023-02-15T01:08:45.425Z,17.50
2023-02-15T01:11:15.799Z,20.50
2023-02-15T01:13:42.850Z,20.20
2023-02-15T01:16:09.822Z,20.00
2023-02-15T01:18:36.544Z,20.00
2023-02-15T01:21:14.971Z,22.80
2023-02-15T01:23:44.605Z,22.20
2023-02-15T01:26:13.939Z,19.00
2023-02-15T01:28:41.508Z,17.30
2023-02-15T01:31:11.265Z,17.80
2023-02-15T01:33:38.863Z,14.70
2023-02-15T01:36:06.482Z,20.10
2023-02-15T01:38:34.632Z,19.20
2023-02-15T01:41:20.184Z,20.30
2023-02-15T01:43:52.580Z,19.60
2023-02-15T01:46:24.324Z,20.70
2023-02-15T01:48:57.049Z,18.20
2023-02-15T01:51:29.958Z,21.40
2023-02-15T01:54:27.848Z,25.70
2023-02-15T01:57:00.071Z,23.00
2023-02-15T01:59:27.191Z,39.30
2023-02-15T02:03:17.889Z,34.10
2023-02-15T02:05:45.107Z,22.00
2023-02-15T02:08:13.494Z,26.00
2023-02-15T02:10:40.191Z,21.10
2023-02-15T02:13:07.600Z,19.10
2023-02-15T02:16:09.736Z,21.30
2023-02-15T02:18:58.966Z,17.60
2023-02-15T02:21:43.678Z,15.90
2023-02-15T02:24:31.583Z,16.60
2023-02-15T02:27:22.050Z,20.60
2023-02-15T02:30:00.107Z,23.70
2023-02-15T02:33:01.445Z,25.20
2023-02-15T02:35:31.812Z,24.20
2023-02-15T02:38:26.991Z,18.60
2023-02-15T02:41:17.201Z,25.40
2023-02-15T02:44:05.418Z,25.90
2023-02-15T02:46:38.013Z,21.70
2023-02-15T02:49:05.138Z,24.30
2023-02-15T02:51:31.851Z,26.20
2023-02-15T02:54:02.858Z,23.80
2023-02-15T02:59:07.371Z,23.70
2023-02-15T03:01:41.948Z,24.40
2023-02-15T03:04:17.822Z,21.50
2023-02-15T03:06:56.051Z,33.30
2023-02-15T03:09:35.019Z,41.50
2023-02-15T03:12:04.025Z,27.20
2023-02-15T03:14:34.571Z,46.00
2023-02-15T03:17:03.001Z,32.90
2023-02-15T03:19:33.757Z,30.00
2023-02-15T03:22:21.945Z,22.40
2023-02-15T03:24:57.997Z,19.40
2023-02-15T03:27:28.684Z,21.60
2023-02-15T03:29:59.762Z,21.20
2023-02-15T03:32:30.753Z,21.50
2023-02-15T03:34:57.886Z,18.40
2023-02-15T03:37:47.618Z,17.50
2023-02-15T03:40:47.788Z,17.10
2023-02-15T03:43:24.145Z,22.10
2023-02-15T03:45:56.638Z,24.10
2023-02-15T03:48:38.533Z,23.90
2023-02-15T03:51:28.268Z,24.70
2023-02-15T03:53:57.119Z,22.90
2023-02-15T03:56:24.765Z,26.30
2023-02-15T03:59:09.878Z,25.50
2023-02-15T04:01:57.907Z,26.10
2023-02-15T04:04:31.378Z,23.10
2023-02-15T04:06:58.220Z,26.70
2023-02-15T04:09:43.515Z,27.60
2023-02-15T04:12:10.537Z,23.20
2023-02-15T04:14:55.799Z,22.40
2023-02-15T04:17:22.608Z,21.90
2023-02-15T04:20:08.218Z,23.30
2023-02-15T04:22:54.428Z,24.60
2023-02-15T04:25:21.379Z,26.90
2023-02-15T04:27:53.319Z,28.30
2023-02-15T04:30:23.756Z,23.00
2023-02-15T04:32:51.526Z,26.70
2023-02-15T04:35:18.630Z,21.60
2023-02-15T04:37:45.489Z,25.20
2023-02-15T04:40:19.118Z,25.10
2023-02-15T04:42:49.428Z,28.20
2023-02-15T04:45:17.278Z,26.00
2023-02-15T04:47:44.089Z,26.10
2023-02-15T04:50:11.406Z,29.90
2023-02-15T04:52:38.505Z,22.90
2023-02-15T04:55:05.556Z,24.20
2023-02-15T04:57:32.391Z,24.70
2023-02-15T04:59:59.486Z,27.70
2023-02-15T05:02:26.154Z,25.30
2023-02-15T05:04:53.062Z,25.30
2023-02-15T05:07:20.754Z,25.50
2023-02-15T05:09:48.080Z,29.20
2023-02-15T05:12:15.083Z,30.80
2023-02-15T05:14:41.916Z,32.10
2023-02-15T05:17:08.564Z,27.60
2023-02-15T05:19:35.454Z,27.00
2023-02-15T05:22:02.229Z,23.50
2023-02-15T05:24:47.824Z,24.60
2023-02-15T05:27:33.531Z,25.80
2023-02-15T05:30:00.479Z,24.10
2023-02-15T05:32:27.685Z,27.70
2023-02-15T05:34:54.565Z,27.20
2023-02-15T05:37:21.198Z,27.40
2023-02-15T05:39:48.226Z,32.20
2023-02-15T05:42:15.034Z,27.80
2023-02-15T05:44:41.875Z,24.10
2023-02-15T05:47:08.651Z,27.50
2023-02-15T05:49:35.479Z,27.20
2023-02-15T05:52:03.298Z,24.00
2023-02-15T05:54:30.282Z,26.10
2023-02-15T05:56:56.997Z,26.50
2023-02-15T05:59:23.781Z,26.60
2023-02-15T06:01:50.863Z,25.50
2023-02-15T06:04:17.579Z,26.50
2023-02-15T06:06:44.243Z,29.00
2023-02-15T06:09:13.057Z,31.90
2023-02-15T06:11:40.267Z,31.50
2023-02-15T06:14:07.493Z,29.60
2023-02-15T06:16:34.332Z,37.40
2023-02-15T06:19:02.157Z,35.50
2023-02-15T06:21:30.403Z,30.10
2023-02-15T06:23:57.933Z,28.30
2023-02-15T06:26:25.019Z,31.50
2023-02-15T06:28:51.767Z,35.90
2023-02-15T06:31:18.868Z,36.40
2023-02-15T06:33:45.745Z,33.70
2023-02-15T06:36:12.983Z,39.10
2023-02-15T06:38:39.953Z,36.80
2023-02-15T06:41:06.870Z,36.60
2023-02-15T06:43:34.639Z,34.70
2023-02-15T06:46:01.899Z,35.40
2023-02-15T06:48:28.815Z,35.70
2023-02-15T06:50:55.919Z,35.20
2023-02-15T06:53:22.825Z,35.80
2023-02-15T06:55:49.472Z,37.70
2023-02-15T06:58:16.288Z,32.30
2023-02-15T07:00:43.288Z,35.30
2023-02-15T07:03:10.030Z,33.70
2023-02-15T07:05:37.068Z,30.60
2023-02-15T07:08:04.045Z,34.00
2023-02-15T07:10:30.738Z,30.90
2023-02-15T07:12:57.545Z,31.80
2023-02-15T07:15:24.749Z,35.70
2023-02-15T07:17:51.607Z,38.90
2023-02-15T07:20:21.185Z,37.70
2023-02-15T07:22:48.678Z,35.30
2023-02-15T07:25:16.417Z,35.90
2023-02-15T07:27:45.094Z,44.60
2023-02-15T07:30:15.135Z,37.00
2023-02-15T07:33:04.864Z,37.10
2023-02-15T07:35:33.193Z,45.00
2023-02-15T07:38:00.923Z,48.60
2023-02-15T07:40:27.776Z,45.10
2023-02-15T07:42:59.245Z,41.30
2023-02-15T07:45:25.933Z,40.60
2023-02-15T07:47:52.740Z,45.90
2023-02-15T07:50:19.779Z,47.60
2023-02-15T07:52:46.465Z,40.40
2023-02-15T07:55:13.252Z,42.00
2023-02-15T07:57:47.967Z,40.30
2023-02-15T08:00:17.223Z,43.50
2023-02-15T08:03:10.605Z,44.30
2023-02-15T08:05:38.012Z,42.40
2023-02-15T08:08:04.878Z,39.90
2023-02-15T08:10:50.683Z,47.40
2023-02-15T08:13:17.711Z,47.10
2023-02-15T08:15:51.292Z,47.30
2023-02-15T08:18:18.567Z,45.80
2023-02-15T08:20:50.229Z,47.30
2023-02-15T08:23:16.877Z,46.60
2023-02-15T08:25:44.152Z,48.50
2023-02-15T08:28:11.509Z,40.00
2023-02-15T08:30:38.220Z,45.40
2023-02-15T08:33:05.104Z,47.30
2023-02-15T08:35:31.957Z,44.30
2023-02-15T08:37:58.586Z,41.60
2023-02-15T08:40:25.442Z,44.00
2023-02-15T08:42:52.206Z,48.70
2023-02-15T08:45:18.884Z,44.00
2023-02-15T08:47:45.893Z,40.60
2023-02-15T08:50:12.995Z,43.90
2023-02-15T08:52:39.574Z,40.50
2023-02-15T08:55:06.668Z,45.80
2023-02-15T08:57:33.572Z,42.10
2023-02-15T09:00:00.350Z,48.10
2023-02-15T09:02:27.428Z,44.80
2023-02-15T09:04:54.387Z,42.20
2023-02-15T09:07:21.047Z,44.30
2023-02-15T09:09:47.909Z,45.70
2023-02-15T09:12:14.706Z,45.70
2023-02-15T09:14:41.377Z,50.60
2023-02-15T09:17:08.263Z,42.80
2023-02-15T09:19:35.117Z,44.40
2023-02-15T09:22:01.785Z,47.20
2023-02-15T09:24:34.249Z,49.50
2023-02-15T09:27:01.170Z,47.90
2023-02-15T09:29:27.831Z,42.10
2023-02-15T09:31:55.090Z,50.60
2023-02-15T09:34:23.425Z,50.50
2023-02-15T09:36:51.261Z,48.70
2023-02-15T09:39:21.501Z,44.40
2023-02-15T09:42:07.204Z,43.10
2023-02-15T09:44:34.066Z,50.10
2023-02-15T09:47:34.733Z,46.60
2023-02-15T09:50:16.537Z,43.20
2023-02-15T09:53:03.541Z,48.50
2023-02-15T09:56:06.273Z,53.00
2023-02-15T09:58:44.965Z,46.50
2023-02-15T10:01:25.466Z,46.10
2023-02-15T10:04:10.364Z,45.40
2023-02-15T10:06:47.239Z,47.10
2023-02-15T10:09:39.194Z,41.10
2023-02-15T10:12:57.344Z,39.50
2023-02-15T10:15:39.232Z,47.30
2023-02-15T10:18:12.729Z,46.90
2023-02-15T10:21:04.489Z,46.80
2023-02-15T10:23:41.767Z,41.10
2023-02-15T10:26:23.205Z,41.30
2023-02-15T10:31:26.857Z,43.50
2023-02-15T10:34:09.419Z,36.80
2023-02-15T10:37:18.140Z,49.20
2023-02-15T10:40:04.027Z,52.00
2023-02-15T10:42:53.641Z,51.00
2023-02-15T10:45:35.780Z,48.50
2023-02-15T10:48:40.422Z,44.90
2023-02-15T10:51:15.436Z,44.90
2023-02-15T10:54:06.113Z,47.50
2023-02-15T10:57:08.032Z,47.40
2023-02-15T10:59:40.591Z,47.20
2023-02-15T11:02:26.028Z,44.30
2023-02-15T11:05:13.895Z,46.00
2023-02-15T11:07:44.265Z,41.60
2023-02-15T11:10:13.713Z,45.30
2023-02-15T11:12:43.536Z,47.20
2023-02-15T11:15:20.259Z,46.30
2023-02-15T11:17:56.000Z,40.10
2023-02-15T11:20:46.772Z,37.40
2023-02-15T11:23:16.665Z,38.30
2023-02-15T11:25:47.162Z,43.00
2023-02-15T11:28:28.399Z,40.50
2023-02-15T11:30:57.332Z,40.70
2023-02-15T11:33:30.949Z,43.70
2023-02-15T11:36:07.188Z,38.00
2023-02-15T11:38:35.564Z,39.20
2023-02-15T11:41:09.223Z,38.60
2023-02-15T11:43:45.341Z,39.90
2023-02-15T11:46:13.306Z,39.70
2023-02-15T11:48:40.194Z,34.20
2023-02-15T11:51:14.190Z,34.90
2023-02-15T11:53:41.350Z,42.00
2023-02-15T11:56:15.310Z,44.40
2023-02-15T11:59:03.347Z,34.10
2023-02-15T12:01:46.329Z,38.90
2023-02-15T12:04:40.711Z,34.60
2023-02-15T12:07:18.387Z,34.00
2023-02-15T12:10:14.465Z,35.90
2023-02-15T12:12:41.457Z,36.00
2023-02-15T12:15:10.601Z,35.90
2023-02-15T12:17:48.939Z,37.70
2023-02-15T12:20:15.871Z,39.00
2023-02-15T12:23:02.611Z,38.40
2023-02-15T12:25:44.050Z,40.60
2023-02-15T12:31:24.507Z,48.00
2023-02-15T12:33:54.526Z,42.10
2023-02-15T12:36:24.367Z,40.00
2023-02-15T12:39:19.942Z,39.80
2023-02-15T12:42:16.875Z,41.00
2023-02-15T12:44:56.806Z,42.00
2023-02-15T12:47:28.862Z,38.80
2023-02-15T12:50:12.130Z,40.40
2023-02-15T12:52:40.110Z,37.80
2023-02-15T12:55:31.364Z,38.50
2023-02-15T13:00:35.235Z,42.40
2023-02-15T13:03:03.226Z,40.10
2023-02-15T13:05:36.375Z,38.10
2023-02-15T13:08:21.936Z,39.70
2023-02-15T13:11:03.197Z,40.80
2023-02-15T13:13:32.472Z,39.70
2023-02-15T13:16:07.948Z,43.80
2023-02-15T13:18:38.183Z,40.10
2023-02-15T13:21:14.912Z,37.30
2023-02-15T13:23:48.601Z,41.80
2023-02-15T13:26:20.401Z,36.30
2023-02-15T13:28:51.112Z,35.20
2023-02-15T13:31:20.202Z,40.80
2023-02-15T13:33:55.688Z,34.10
2023-02-15T13:36:30.596Z,36.70
2023-02-15T13:39:12.362Z,39.20
2023-02-15T13:41:56.777Z,36.30
2023-02-15T13:44:32.164Z,36.30
2023-02-15T13:47:50.096Z,38.40
2023-02-15T13:50:36.895Z,33.80
2023-02-15T13:53:22.637Z,36.60
2023-02-15T13:56:02.202Z,35.00
2023-02-15T13:59:01.223Z,35.10
2023-02-15T14:01:34.907Z,38.40
2023-02-15T14:04:50.942Z,38.00
2023-02-15T14:07:25.275Z,43.00
2023-02-15T14:10:11.033Z,39.40
2023-02-15T14:13:03.810Z,38.80
2023-02-15T14:15:52.519Z,33.00
2023-02-15T14:18:37.891Z,37.00
2023-02-15T14:21:25.510Z,37.60
2023-02-15T14:24:30.482Z,35.20
2023-02-15T14:27:18.297Z,37.20
2023-02-15T14:30:05.526Z,33.40
2023-02-15T14:33:28.116Z,39.90
2023-02-15T14:35:57.602Z,41.40
2023-02-15T14:38:47.574Z,37.00
2023-02-15T14:41:29.941Z,36.80
2023-02-15T14:44:22.476Z,39.10
2023-02-15T14:46:58.844Z,32.70
2023-02-15T14:49:27.963Z,38.90
2023-02-15T14:51:58.303Z,37.80
2023-02-15T14:54:25.184Z,36.70
2023-02-15T14:57:00.683Z,39.10
2023-02-15T14:59:50.954Z,36.50
2023-02-15T15:02:27.931Z,40.70
2023-02-15T15:05:17.927Z,38.20
2023-02-15T15:07:48.990Z,33.60
2023-02-15T15:10:21.000Z,39.10
2023-02-15T15:12:58.053Z,47.70
2023-02-15T15:15:28.347Z,53.80
2023-02-15T15:18:04.887Z,49.70
2023-02-15T15:20:41.515Z,45.80
2023-02-15T15:23:20.383Z,37.80
2023-02-15T15:26:23.998Z,38.20
2023-02-15T15:28:50.873Z,35.80
2023-02-15T15:31:29.829Z,40.90
2023-02-15T15:34:28.310Z,39.40
2023-02-15T15:37:32.326Z,40.90
2023-02-15T15:40:43.552Z,39.40
2023-02-15T15:43:34.373Z,40.70
2023-02-15T15:46:31.114Z,39.10
2023-02-15T15:49:03.616Z,39.10
2023-02-15T15:51:33.583Z,37.30
2023-02-15T15:54:02.862Z,39.20
2023-02-15T15:56:36.384Z,42.60
2023-02-15T15:59:14.796Z,43.00
2023-02-15T16:01:46.185Z,47.10
2023-02-15T16:04:23.430Z,44.40
2023-02-15T16:06:50.469Z,51.80
2023-02-15T16:09:19.273Z,53.30
2023-02-15T16:11:52.813Z,55.70
2023-02-15T16:14:29.773Z,48.00
2023-02-15T16:17:02.507Z,48.50
2023-02-15T16:19:50.692Z,45.90
2023-02-15T16:22:24.828Z,47.20
2023-02-15T16:25:16.222Z,54.00
2023-02-15T16:30:30.006Z,60.90
2023-02-15T16:33:16.442Z,54.20
2023-02-15T16:35:57.629Z,64.60
2023-02-15T16:38:47.529Z,60.60
2023-02-15T16:41:30.512Z,68.70
2023-02-15T16:44:05.456Z,59.90
2023-02-15T16:46:38.295Z,55.20
2023-02-15T16:49:16.144Z,71.20
2023-02-15T16:51:47.976Z,62.10
2023-02-15T16:54:20.452Z,56.20
2023-02-15T16:56:48.076Z,60.20
2023-02-15T16:59:27.998Z,58.20
2023-02-15T17:01:54.936Z,54.90
2023-02-15T17:04:22.127Z,51.10
2023-02-15T17:07:17.456Z,56.80
2023-02-15T17:09:55.958Z,56.00
2023-02-15T17:12:56.047Z,54.40
2023-02-15T17:15:37.675Z,52.40
2023-02-15T17:18:10.917Z,50.00
2023-02-15T17:20:42.124Z,55.20
2023-02-15T17:25:57.383Z,58.90
2023-02-15T17:28:28.126Z,57.90
2023-02-15T17:30:56.556Z,56.30
2023-02-15T17:33:36.878Z,57.40
2023-02-15T17:36:07.046Z,50.10
2023-02-15T17:38:34.175Z,51.70
2023-02-15T17:41:01.322Z,59.10
2023-02-15T17:43:28.384Z,53.80
2023-02-15T17:45:57.915Z,52.40
2023-02-15T17:48:33.065Z,52.90
2023-02-15T17:51:06.778Z,54.30
2023-02-15T17:53:33.932Z,57.50
2023-02-15T17:56:09.984Z,54.90
2023-02-15T17:58:37.322Z,54.60
2023-02-15T18:01:37.678Z,51.80
2023-02-15T18:04:24.333Z,54.20
2023-02-15T18:07:09.621Z,53.40
2023-02-15T18:09:54.948Z,51.40
2023-02-15T18:12:28.837Z,47.30
2023-02-15T18:14:57.074Z,51.10
2023-02-15T18:17:39.023Z,48.10
2023-02-15T18:20:15.414Z,54.40
2023-02-15T18:22:42.288Z,65.80
2023-02-15T18:25:21.147Z,61.70
2023-02-15T18:27:47.937Z,65.20
2023-02-15T18:30:18.168Z,65.20
2023-02-15T18:32:46.870Z,60.20
2023-02-15T18:35:19.421Z,56.80
2023-02-15T18:37:47.198Z,56.10
2023-02-15T18:40:16.835Z,54.10
2023-02-15T18:42:47.228Z,53.90
2023-02-15T18:45:21.774Z,54.10
2023-02-15T18:47:48.925Z,46.00
2023-02-15T18:50:18.134Z,55.70
2023-02-15T18:52:46.358Z,55.20
2023-02-15T18:55:20.459Z,62.40
2023-02-15T18:57:48.601Z,67.50
2023-02-15T19:00:19.189Z,55.40
2023-02-15T19:02:47.337Z,58.60
2023-02-15T19:05:15.823Z,55.80
2023-02-15T19:07:44.781Z,59.20
2023-02-15T19:10:16.030Z,61.70
2023-02-15T19:12:43.729Z,60.80
2023-02-15T19:15:24.143Z,58.00
2023-02-15T19:17:51.998Z,58.80
2023-02-15T19:20:21.861Z,62.10
2023-02-15T19:22:50.271Z,60.50
2023-02-15T19:25:21.554Z,72.10
2023-02-15T19:27:48.688Z,73.10
2023-02-15T19:30:28.148Z,67.70
2023-02-15T19:32:56.308Z,63.80
2023-02-15T19:35:32.367Z,62.50
2023-02-15T19:38:02.458Z,62.30
2023-02-15T19:40:32.294Z,70.30
2023-02-15T19:42:59.490Z,59.60
2023-02-15T19:45:29.018Z,61.20
2023-02-15T19:47:56.598Z,62.40
2023-02-15T19:50:28.057Z,67.20
2023-02-15T19:52:55.420Z,65.90
2023-02-15T19:55:31.056Z,59.60
2023-02-15T19:57:58.952Z,59.50
2023-02-15T20:00:33.585Z,62.20
2023-02-15T20:03:00.779Z,65.20
2023-02-15T20:05:34.307Z,64.40
2023-02-15T20:08:03.445Z,61.00
2023-02-15T20:10:31.429Z,65.40
2023-02-15T20:12:58.770Z,63.00
2023-02-15T20:15:28.620Z,70.10
2023-02-15T20:17:57.329Z,65.20
2023-02-15T20:20:30.999Z,61.80
2023-02-15T20:22:57.869Z,58.50
2023-02-15T20:25:27.038Z,62.10
2023-02-15T20:27:55.193Z,60.10
2023-02-15T20:30:25.590Z,61.80
2023-02-15T20:32:52.314Z,62.70
2023-02-15T20:35:22.060Z,65.20
2023-02-15T20:37:54.440Z,62.20
2023-02-15T20:40:24.940Z,65.40
2023-02-15T20:42:51.696Z,71.10
2023-02-15T20:45:26.930Z,77.00
2023-02-15T20:47:53.858Z,69.70
2023-02-15T20:50:26.955Z,61.30
2023-02-15T20:52:55.551Z,63.10
2023-02-15T20:55:25.913Z,62.40
2023-02-15T20:57:52.811Z,60.20
2023-02-15T21:00:23.354Z,60.60
2023-02-15T21:02:54.369Z,64.30
2023-02-15T21:05:27.361Z,60.60
2023-02-15T21:07:54.192Z,63.90
2023-02-15T21:10:25.298Z,65.80
2023-02-15T21:15:33.060Z,64.30
2023-02-15T21:18:05.629Z,59.70
2023-02-15T21:20:34.485Z,63.80
2023-02-15T21:23:04.140Z,56.80
2023-02-15T21:25:36.310Z,58.60
2023-02-15T21:28:04.195Z,68.60
2023-02-15T21:30:30.995Z,66.90
2023-02-15T21:32:57.986Z,68.60
2023-02-15T21:35:25.351Z,69.00
2023-02-15T21:37:52.761Z,66.00
2023-02-15T21:40:23.132Z,77.30
2023-02-15T21:43:08.718Z,67.10
2023-02-15T21:45:54.761Z,63.40
2023-02-15T21:48:21.722Z,65.20
2023-02-15T21:51:10.807Z,64.80
2023-02-15T21:53:45.232Z,71.00
2023-02-15T21:56:17.898Z,69.50
2023-02-15T21:58:44.954Z,72.40
2023-02-15T22:01:25.264Z,68.70
2023-02-15T22:03:55.209Z,65.60
2023-02-15T22:06:22.678Z,65.20
2023-02-15T22:08:49.691Z,67.90
2023-02-15T22:11:21.841Z,67.10
2023-02-15T22:13:49.318Z,69.50
2023-02-15T22:16:19.125Z,69.70
2023-02-15T22:18:47.378Z,73.60
2023-02-15T22:21:16.065Z,75.70
2023-02-15T22:23:43.394Z,74.40
2023-02-15T22:26:19.875Z,73.60
2023-02-15T22:28:46.867Z,82.60
2023-02-15T22:31:18.280Z,81.60
2023-02-15T22:36:29.006Z,70.90
2023-02-15T22:38:57.029Z,76.70
2023-02-15T22:41:29.215Z,77.80
2023-02-15T22:43:56.655Z,70.20
2023-02-15T22:46:24.592Z,75.60
2023-02-15T22:48:51.548Z,80.50
2023-02-15T22:51:23.789Z,81.40
2023-02-15T22:53:51.691Z,78.60
2023-02-15T22:56:26.497Z,80.80
2023-02-15T22:59:01.310Z,82.80
2023-02-15T23:01:33.875Z,83.60
2023-02-15T23:04:03.419Z,81.60
2023-02-15T23:06:33.883Z,80.20
2023-02-15T23:09:00.729Z,73.80
2023-02-15T23:11:28.013Z,76.60
2023-02-15T23:13:54.954Z,77.00
2023-02-15T23:16:21.795Z,82.40
2023-02-15T23:18:49.357Z,82.80
2023-02-15T23:21:21.020Z,79.00
2023-02-15T23:23:50.769Z,79.80
2023-02-15T23:26:22.431Z,81.70
2023-02-15T23:28:50.547Z,75.50
2023-02-15T23:31:23.094Z,82.90
2023-02-15T23:33:52.026Z,82.90
2023-02-15T23:36:36.768Z,74.30
2023-02-15T23:39:39.218Z,73.70
2023-02-15T23:42:10.629Z,77.40
2023-02-15T23:44:39.008Z,91.60
2023-02-15T23:47:08.844Z,85.00
2023-02-15T23:49:35.805Z,80.80
2023-02-15T23:52:05.805Z,79.30
2023-02-15T23:54:32.428Z,73.40
2023-02-15T23:57:01.419Z,86.00
2023-02-15T23:59:30.714Z,74.60
